sensor_id;sensor_type;location;lat;lon;timestamp;temperature;humidity
9987;DHT22;5033;46.310;11.214;2023-11-19T00:00:32;5.50;99.90
9987;DHT22;5033;46.310;11.214;2023-11-19T00:02:59;5.50;99.90
9987;DHT22;5033;46.310;11.214;2023-11-19T00:05:27;5.50;99.90
9987;DHT22;5033;46.310;11.214;2023-11-19T00:07:54;5.50;99.90
9987;DHT22;5033;46.310;11.214;2023-11-19T00:10:21;5.50;99.90
9987;DHT22;5033;46.310;11.214;2023-11-19T00:12:50;5.50;99.90
9987;DHT22;5033;46.310;11.214;2023-11-19T00:15:17;5.50;99.90
9987;DHT22;5033;46.310;11.214;2023-11-19T00:17:47;5.50;99.90
9987;DHT22;5033;46.310;11.214;2023-11-19T00:20:15;5.50;99.90
9987;DHT22;5033;46.310;11.214;2023-11-19T00:22:42;5.50;99.90
9987;DHT22;5033;46.310;11.214;2023-11-19T00:25:10;5.40;99.90
9987;DHT22;5033;46.310;11.214;2023-11-19T00:27:37;5.40;99.90
9987;DHT22;5033;46.310;11.214;2023-11-19T00:30:05;5.40;99.90
9987;DHT22;5033;46.310;11.214;2023-11-19T00:32:32;5.40;99.90
9987;DHT22;5033;46.310;11.214;2023-11-19T00:35:00;5.40;99.90
9987;DHT22;5033;46.310;11.214;2023-11-19T00:37:28;5.40;99.90
9987;DHT22;5033;46.310;11.214;2023-11-19T00:39:55;5.50;99.90
9987;DHT22;5033;46.310;11.214;2023-11-19T00:42:22;5.60;99.90
9987;DHT22;5033;46.310;11.214;2023-11-19T00:44:49;5.60;99.90
9987;DHT22;5033;46.310;11.214;2023-11-19T00:47:17;5.60;99.90
9987;DHT22;5033;46.310;11.214;2023-11-19T00:49:46;5.70;99.90
9987;DHT22;5033;46.310;11.214;2023-11-19T00:52:15;5.70;99.90
9987;DHT22;5033;46.310;11.214;2023-11-19T00:54:42;5.70;99.90
9987;DHT22;5033;46.310;11.214;2023-11-19T00:57:09;5.60;99.90
9987;DHT22;5033;46.310;11.214;2023-11-19T00:59:36;5.50;99.90
9987;DHT22;5033;46.310;11.214;2023-11-19T01:02:03;5.50;99.90
9987;DHT22;5033;46.310;11.214;2023-11-19T01:04:33;5.60;99.90
9987;DHT22;5033;46.310;11.214;2023-11-19T01:07:02;5.60;99.90
9987;DHT22;5033;46.310;11.214;2023-11-19T01:09:32;5.60;99.90
9987;DHT22;5033;46.310;11.214;2023-11-19T01:12:00;5.60;99.90
9987;DHT22;5033;46.310;11.214;2023-11-19T01:14:27;5.60;99.90
9987;DHT22;5033;46.310;11.214;2023-11-19T01:16:54;5.60;99.90
9987;DHT22;5033;46.310;11.214;2023-11-19T01:19:21;5.60;99.90
9987;DHT22;5033;46.310;11.214;2023-11-19T01:21:50;5.60;99.90
9987;DHT22;5033;46.310;11.214;2023-11-19T01:24:17;5.60;99.90
9987;DHT22;5033;46.310;11.214;2023-11-19T01:26:45;5.50;99.90
9987;DHT22;5033;46.310;11.214;2023-11-19T01:29:13;5.50;99.90
9987;DHT22;5033;46.310;11.214;2023-11-19T01:31:40;5.40;99.90
9987;DHT22;5033;46.310;11.214;2023-11-19T01:34:07;5.40;99.90
9987;DHT22;5033;46.310;11.214;2023-11-19T01:36:34;5.40;99.90
9987;DHT22;5033;46.310;11.214;2023-11-19T01:39:01;5.30;99.90
9987;DHT22;5033;46.310;11.214;2023-11-19T01:41:29;5.30;99.90
9987;DHT22;5033;46.310;11.214;2023-11-19T01:44:01;5.30;99.90
9987;DHT22;5033;46.310;11.214;2023-11-19T01:46:29;5.30;99.90
9987;DHT22;5033;46.310;11.214;2023-11-19T01:48:58;5.30;99.90
9987;DHT22;5033;46.310;11.214;2023-11-19T01:51:26;5.20;99.90
9987;DHT22;5033;46.310;11.214;2023-11-19T01:53:54;5.30;99.90
9987;DHT22;5033;46.310;11.214;2023-11-19T01:56:21;5.20;99.90
9987;DHT22;5033;46.310;11.214;2023-11-19T01:58:50;5.30;99.90
9987;DHT22;5033;46.310;11.214;2023-11-19T02:01:18;5.30;99.90
9987;DHT22;5033;46.310;11.214;2023-11-19T02:03:45;5.40;99.90
9987;DHT22;5033;46.310;11.214;2023-11-19T02:06:13;5.40;99.90
9987;DHT22;5033;46.310;11.214;2023-11-19T02:08:40;5.40;99.90
9987;DHT22;5033;46.310;11.214;2023-11-19T02:11:07;5.40;99.90
9987;DHT22;5033;46.310;11.214;2023-11-19T02:13:34;5.40;99.90
9987;DHT22;5033;46.310;11.214;2023-11-19T02:16:02;5.40;99.90
9987;DHT22;5033;46.310;11.214;2023-11-19T02:18:31;5.40;99.90
9987;DHT22;5033;46.310;11.214;2023-11-19T02:20:58;5.40;99.90
9987;DHT22;5033;46.310;11.214;2023-11-19T02:23:27;5.50;99.90
9987;DHT22;5033;46.310;11.214;2023-11-19T02:26:09;5.50;99.90
9987;DHT22;5033;46.310;11.214;2023-11-19T02:28:41;5.50;99.90
9987;DHT22;5033;46.310;11.214;2023-11-19T02:31:09;5.50;99.90
9987;DHT22;5033;46.310;11.214;2023-11-19T02:33:37;5.50;99.90
9987;DHT22;5033;46.310;11.214;2023-11-19T02:36:04;5.50;99.90
9987;DHT22;5033;46.310;11.214;2023-11-19T02:38:32;5.60;99.90
9987;DHT22;5033;46.310;11.214;2023-11-19T02:41:02;5.60;99.90
9987;DHT22;5033;46.310;11.214;2023-11-19T02:43:30;5.60;99.90
9987;DHT22;5033;46.310;11.214;2023-11-19T02:46:00;5.60;99.90
9987;DHT22;5033;46.310;11.214;2023-11-19T02:48:27;5.50;99.90
9987;DHT22;5033;46.310;11.214;2023-11-19T02:50:54;5.40;99.90
9987;DHT22;5033;46.310;11.214;2023-11-19T02:53:23;5.50;99.90
9987;DHT22;5033;46.310;11.214;2023-11-19T02:55:53;5.50;99.90
9987;DHT22;5033;46.310;11.214;2023-11-19T02:58:26;5.50;99.90
9987;DHT22;5033;46.310;11.214;2023-11-19T03:00:54;5.50;99.90
9987;DHT22;5033;46.310;11.214;2023-11-19T03:03:26;5.50;99.90
9987;DHT22;5033;46.310;11.214;2023-11-19T03:06:04;5.50;99.90
9987;DHT22;5033;46.310;11.214;2023-11-19T03:08:31;5.50;99.90
9987;DHT22;5033;46.310;11.214;2023-11-19T03:10:58;5.50;99.90
9987;DHT22;5033;46.310;11.214;2023-11-19T03:13:26;5.50;99.90
9987;DHT22;5033;46.310;11.214;2023-11-19T03:15:53;5.50;99.90
9987;DHT22;5033;46.310;11.214;2023-11-19T03:18:20;5.50;99.90
9987;DHT22;5033;46.310;11.214;2023-11-19T03:20:48;5.50;99.90
9987;DHT22;5033;46.310;11.214;2023-11-19T03:23:16;5.50;99.90
9987;DHT22;5033;46.310;11.214;2023-11-19T03:25:43;5.50;99.90
9987;DHT22;5033;46.310;11.214;2023-11-19T03:28:10;5.40;99.90
9987;DHT22;5033;46.310;11.214;2023-11-19T03:30:37;5.40;99.90
9987;DHT22;5033;46.310;11.214;2023-11-19T03:33:05;5.30;99.90
9987;DHT22;5033;46.310;11.214;2023-11-19T03:35:32;5.30;99.90
9987;DHT22;5033;46.310;11.214;2023-11-19T03:38:01;5.20;99.90
9987;DHT22;5033;46.310;11.214;2023-11-19T03:40:28;5.20;99.90
9987;DHT22;5033;46.310;11.214;2023-11-19T03:42:56;5.10;99.90
9987;DHT22;5033;46.310;11.214;2023-11-19T03:45:23;5.10;99.90
9987;DHT22;5033;46.310;11.214;2023-11-19T03:47:50;5.10;99.90
9987;DHT22;5033;46.310;11.214;2023-11-19T03:50:17;5.10;99.90
9987;DHT22;5033;46.310;11.214;2023-11-19T03:52:45;5.10;99.90
9987;DHT22;5033;46.310;11.214;2023-11-19T03:55:14;5.10;99.90
9987;DHT22;5033;46.310;11.214;2023-11-19T03:57:41;5.10;99.90
9987;DHT22;5033;46.310;11.214;2023-11-19T04:00:09;5.10;99.90
9987;DHT22;5033;46.310;11.214;2023-11-19T04:02:36;5.10;99.90
9987;DHT22;5033;46.310;11.214;2023-11-19T04:05:03;5.10;99.90
9987;DHT22;5033;46.310;11.214;2023-11-19T04:07:30;5.10;99.90
9987;DHT22;5033;46.310;11.214;2023-11-19T04:09:58;5.10;99.90
9987;DHT22;5033;46.310;11.214;2023-11-19T04:12:27;5.10;99.90
9987;DHT22;5033;46.310;11.214;2023-11-19T04:14:54;5.10;99.90
9987;DHT22;5033;46.310;11.214;2023-11-19T04:17:21;5.00;99.90
9987;DHT22;5033;46.310;11.214;2023-11-19T04:19:48;5.00;99.90
9987;DHT22;5033;46.310;11.214;2023-11-19T04:22:15;4.90;99.90
9987;DHT22;5033;46.310;11.214;2023-11-19T04:24:42;4.90;99.90
9987;DHT22;5033;46.310;11.214;2023-11-19T04:27:11;4.90;99.90
9987;DHT22;5033;46.310;11.214;2023-11-19T04:29:39;4.90;99.90
9987;DHT22;5033;46.310;11.214;2023-11-19T04:32:06;4.80;99.90
9987;DHT22;5033;46.310;11.214;2023-11-19T04:34:34;4.80;99.90
9987;DHT22;5033;46.310;11.214;2023-11-19T04:37:03;4.80;99.90
9987;DHT22;5033;46.310;11.214;2023-11-19T04:39:30;4.80;99.90
9987;DHT22;5033;46.310;11.214;2023-11-19T04:41:57;4.70;99.90
9987;DHT22;5033;46.310;11.214;2023-11-19T04:44:25;4.70;99.90
9987;DHT22;5033;46.310;11.214;2023-11-19T04:46:53;4.70;99.90
9987;DHT22;5033;46.310;11.214;2023-11-19T04:49:20;4.70;99.90
9987;DHT22;5033;46.310;11.214;2023-11-19T04:51:47;4.60;99.90
9987;DHT22;5033;46.310;11.214;2023-11-19T04:54:14;4.60;99.90
9987;DHT22;5033;46.310;11.214;2023-11-19T04:56:45;4.60;99.90
9987;DHT22;5033;46.310;11.214;2023-11-19T04:59:12;4.60;99.90
9987;DHT22;5033;46.310;11.214;2023-11-19T05:01:39;4.60;99.90
9987;DHT22;5033;46.310;11.214;2023-11-19T05:04:08;4.60;99.90
9987;DHT22;5033;46.310;11.214;2023-11-19T05:06:35;4.60;99.90
9987;DHT22;5033;46.310;11.214;2023-11-19T05:09:03;4.60;99.90
9987;DHT22;5033;46.310;11.214;2023-11-19T05:11:32;4.60;99.90
9987;DHT22;5033;46.310;11.214;2023-11-19T05:13:59;4.60;99.90
9987;DHT22;5033;46.310;11.214;2023-11-19T05:16:26;4.60;99.90
9987;DHT22;5033;46.310;11.214;2023-11-19T05:18:53;4.60;99.90
9987;DHT22;5033;46.310;11.214;2023-11-19T05:21:22;4.60;99.90
9987;DHT22;5033;46.310;11.214;2023-11-19T05:23:49;4.60;99.90
9987;DHT22;5033;46.310;11.214;2023-11-19T05:26:19;4.60;99.90
9987;DHT22;5033;46.310;11.214;2023-11-19T05:28:47;4.60;99.90
9987;DHT22;5033;46.310;11.214;2023-11-19T05:31:15;4.60;99.90
9987;DHT22;5033;46.310;11.214;2023-11-19T05:33:43;4.60;99.90
9987;DHT22;5033;46.310;11.214;2023-11-19T05:36:11;4.60;99.90
9987;DHT22;5033;46.310;11.214;2023-11-19T05:38:40;4.60;99.90
9987;DHT22;5033;46.310;11.214;2023-11-19T05:41:07;4.70;99.90
9987;DHT22;5033;46.310;11.214;2023-11-19T05:43:34;4.60;99.90
9987;DHT22;5033;46.310;11.214;2023-11-19T05:46:01;4.60;99.90
9987;DHT22;5033;46.310;11.214;2023-11-19T05:48:28;4.60;99.90
9987;DHT22;5033;46.310;11.214;2023-11-19T05:50:55;4.60;99.90
9987;DHT22;5033;46.310;11.214;2023-11-19T05:53:22;4.60;99.90
9987;DHT22;5033;46.310;11.214;2023-11-19T05:55:51;4.60;99.90
9987;DHT22;5033;46.310;11.214;2023-11-19T05:58:23;4.60;99.90
9987;DHT22;5033;46.310;11.214;2023-11-19T06:00:51;4.60;99.90
9987;DHT22;5033;46.310;11.214;2023-11-19T06:03:18;4.60;99.90
9987;DHT22;5033;46.310;11.214;2023-11-19T06:05:47;4.50;99.90
9987;DHT22;5033;46.310;11.214;2023-11-19T06:08:14;4.50;99.90
9987;DHT22;5033;46.310;11.214;2023-11-19T06:10:41;4.50;99.90
9987;DHT22;5033;46.310;11.214;2023-11-19T06:13:10;4.50;99.90
9987;DHT22;5033;46.310;11.214;2023-11-19T06:15:37;4.50;99.90
9987;DHT22;5033;46.310;11.214;2023-11-19T06:18:04;4.60;99.90
9987;DHT22;5033;46.310;11.214;2023-11-19T06:20:32;4.60;99.90
9987;DHT22;5033;46.310;11.214;2023-11-19T06:22:59;4.60;99.90
9987;DHT22;5033;46.310;11.214;2023-11-19T06:25:26;4.60;99.90
9987;DHT22;5033;46.310;11.214;2023-11-19T06:27:54;4.70;99.90
9987;DHT22;5033;46.310;11.214;2023-11-19T06:30:22;4.70;99.90
9987;DHT22;5033;46.310;11.214;2023-11-19T06:32:49;4.70;99.90
9987;DHT22;5033;46.310;11.214;2023-11-19T06:35:17;4.70;99.90
9987;DHT22;5033;46.310;11.214;2023-11-19T06:37:44;4.80;99.90
9987;DHT22;5033;46.310;11.214;2023-11-19T06:40:11;4.90;99.90
9987;DHT22;5033;46.310;11.214;2023-11-19T06:42:38;4.90;99.90
9987;DHT22;5033;46.310;11.214;2023-11-19T06:45:06;4.80;99.90
9987;DHT22;5033;46.310;11.214;2023-11-19T06:47:35;4.90;99.90
9987;DHT22;5033;46.310;11.214;2023-11-19T06:50:02;5.00;99.90
9987;DHT22;5033;46.310;11.214;2023-11-19T06:52:31;5.00;99.90
9987;DHT22;5033;46.310;11.214;2023-11-19T06:54:58;5.10;99.90
9987;DHT22;5033;46.310;11.214;2023-11-19T06:57:25;5.20;99.90
9987;DHT22;5033;46.310;11.214;2023-11-19T06:59:53;5.20;99.90
9987;DHT22;5033;46.310;11.214;2023-11-19T07:02:20;5.30;99.90
9987;DHT22;5033;46.310;11.214;2023-11-19T07:04:49;5.40;99.90
9987;DHT22;5033;46.310;11.214;2023-11-19T07:07:16;5.40;99.90
9987;DHT22;5033;46.310;11.214;2023-11-19T07:09:43;5.60;99.90
9987;DHT22;5033;46.310;11.214;2023-11-19T07:12:10;5.60;99.90
9987;DHT22;5033;46.310;11.214;2023-11-19T07:14:38;5.60;99.90
9987;DHT22;5033;46.310;11.214;2023-11-19T07:17:05;5.60;99.90
9987;DHT22;5033;46.310;11.214;2023-11-19T07:19:33;5.60;99.90
9987;DHT22;5033;46.310;11.214;2023-11-19T07:22:02;5.60;99.90
9987;DHT22;5033;46.310;11.214;2023-11-19T07:24:29;5.70;99.90
9987;DHT22;5033;46.310;11.214;2023-11-19T07:26:57;5.60;99.90
9987;DHT22;5033;46.310;11.214;2023-11-19T07:29:24;5.70;99.90
9987;DHT22;5033;46.310;11.214;2023-11-19T07:31:51;5.80;99.90
9987;DHT22;5033;46.310;11.214;2023-11-19T07:34:18;5.80;99.90
9987;DHT22;5033;46.310;11.214;2023-11-19T07:36:46;5.90;99.90
9987;DHT22;5033;46.310;11.214;2023-11-19T07:39:15;6.00;99.90
9987;DHT22;5033;46.310;11.214;2023-11-19T07:41:42;6.00;99.90
9987;DHT22;5033;46.310;11.214;2023-11-19T07:44:09;6.10;99.90
9987;DHT22;5033;46.310;11.214;2023-11-19T07:46:36;6.20;99.90
9987;DHT22;5033;46.310;11.214;2023-11-19T07:49:03;6.30;99.90
9987;DHT22;5033;46.310;11.214;2023-11-19T07:51:30;6.40;99.90
9987;DHT22;5033;46.310;11.214;2023-11-19T07:53:57;7.10;99.90
9987;DHT22;5033;46.310;11.214;2023-11-19T07:56:26;7.90;99.90
9987;DHT22;5033;46.310;11.214;2023-11-19T07:58:53;8.00;99.90
9987;DHT22;5033;46.310;11.214;2023-11-19T08:01:20;8.00;99.90
9987;DHT22;5033;46.310;11.214;2023-11-19T08:03:46;8.10;99.90
9987;DHT22;5033;46.310;11.214;2023-11-19T08:06:13;8.40;99.90
9987;DHT22;5033;46.310;11.214;2023-11-19T08:08:40;8.60;99.90
9987;DHT22;5033;46.310;11.214;2023-11-19T08:11:08;8.70;99.90
9987;DHT22;5033;46.310;11.214;2023-11-19T08:13:36;8.80;99.90
9987;DHT22;5033;46.310;11.214;2023-11-19T08:16:04;8.80;99.90
9987;DHT22;5033;46.310;11.214;2023-11-19T08:18:31;8.80;99.90
9987;DHT22;5033;46.310;11.214;2023-11-19T08:20:58;9.20;99.90
9987;DHT22;5033;46.310;11.214;2023-11-19T08:23:26;9.20;99.90
9987;DHT22;5033;46.310;11.214;2023-11-19T08:25:54;9.00;99.90
9987;DHT22;5033;46.310;11.214;2023-11-19T08:28:21;8.70;99.90
9987;DHT22;5033;46.310;11.214;2023-11-19T08:30:49;8.50;99.90
9987;DHT22;5033;46.310;11.214;2023-11-19T08:33:16;8.30;99.90
9987;DHT22;5033;46.310;11.214;2023-11-19T08:35:43;8.20;99.90
9987;DHT22;5033;46.310;11.214;2023-11-19T08:38:10;8.20;99.90
9987;DHT22;5033;46.310;11.214;2023-11-19T08:40:37;8.20;99.90
9987;DHT22;5033;46.310;11.214;2023-11-19T08:43:05;8.30;99.90
9987;DHT22;5033;46.310;11.214;2023-11-19T08:45:32;8.30;99.90
9987;DHT22;5033;46.310;11.214;2023-11-19T08:48:00;8.30;99.90
9987;DHT22;5033;46.310;11.214;2023-11-19T08:50:27;8.20;99.90
9987;DHT22;5033;46.310;11.214;2023-11-19T08:52:54;8.10;99.90
9987;DHT22;5033;46.310;11.214;2023-11-19T08:55:21;8.10;99.90
9987;DHT22;5033;46.310;11.214;2023-11-19T08:57:48;8.20;99.90
9987;DHT22;5033;46.310;11.214;2023-11-19T09:00:16;8.30;99.90
9987;DHT22;5033;46.310;11.214;2023-11-19T09:02:43;8.80;99.90
9987;DHT22;5033;46.310;11.214;2023-11-19T09:05:11;9.20;99.90
9987;DHT22;5033;46.310;11.214;2023-11-19T09:07:39;9.20;99.90
9987;DHT22;5033;46.310;11.214;2023-11-19T09:10:06;9.10;99.90
9987;DHT22;5033;46.310;11.214;2023-11-19T09:12:34;9.10;99.90
9987;DHT22;5033;46.310;11.214;2023-11-19T09:15:01;9.20;99.90
9987;DHT22;5033;46.310;11.214;2023-11-19T09:17:28;9.20;99.90
9987;DHT22;5033;46.310;11.214;2023-11-19T09:19:55;9.70;99.90
9987;DHT22;5033;46.310;11.214;2023-11-19T09:22:24;9.80;99.90
9987;DHT22;5033;46.310;11.214;2023-11-19T09:24:50;9.60;99.90
9987;DHT22;5033;46.310;11.214;2023-11-19T09:27:18;9.50;99.90
9987;DHT22;5033;46.310;11.214;2023-11-19T09:29:45;9.30;99.90
9987;DHT22;5033;46.310;11.214;2023-11-19T09:32:14;9.20;99.90
9987;DHT22;5033;46.310;11.214;2023-11-19T09:34:41;9.20;99.90
9987;DHT22;5033;46.310;11.214;2023-11-19T09:37:08;9.40;99.90
9987;DHT22;5033;46.310;11.214;2023-11-19T09:39:36;9.60;99.90
9987;DHT22;5033;46.310;11.214;2023-11-19T09:42:04;9.60;99.90
9987;DHT22;5033;46.310;11.214;2023-11-19T09:44:31;9.60;99.90
9987;DHT22;5033;46.310;11.214;2023-11-19T09:46:59;9.60;99.90
9987;DHT22;5033;46.310;11.214;2023-11-19T09:49:26;9.50;99.90
9987;DHT22;5033;46.310;11.214;2023-11-19T09:51:54;9.20;99.90
9987;DHT22;5033;46.310;11.214;2023-11-19T09:54:21;9.10;99.90
9987;DHT22;5033;46.310;11.214;2023-11-19T09:56:49;9.00;99.90
9987;DHT22;5033;46.310;11.214;2023-11-19T09:59:17;9.10;99.90
9987;DHT22;5033;46.310;11.214;2023-11-19T10:01:45;9.10;99.90
9987;DHT22;5033;46.310;11.214;2023-11-19T10:04:15;9.50;99.90
9987;DHT22;5033;46.310;11.214;2023-11-19T10:06:42;10.40;99.90
9987;DHT22;5033;46.310;11.214;2023-11-19T10:09:12;11.20;99.90
9987;DHT22;5033;46.310;11.214;2023-11-19T10:11:40;12.00;99.90
9987;DHT22;5033;46.310;11.214;2023-11-19T10:14:09;11.90;99.90
9987;DHT22;5033;46.310;11.214;2023-11-19T10:16:38;11.60;99.90
9987;DHT22;5033;46.310;11.214;2023-11-19T10:19:05;11.10;99.90
9987;DHT22;5033;46.310;11.214;2023-11-19T10:21:33;10.70;99.90
9987;DHT22;5033;46.310;11.214;2023-11-19T10:24:00;10.40;99.90
9987;DHT22;5033;46.310;11.214;2023-11-19T10:26:27;10.20;99.90
9987;DHT22;5033;46.310;11.214;2023-11-19T10:28:56;10.20;99.90
9987;DHT22;5033;46.310;11.214;2023-11-19T10:31:24;10.20;99.90
9987;DHT22;5033;46.310;11.214;2023-11-19T10:33:52;10.20;99.90
9987;DHT22;5033;46.310;11.214;2023-11-19T10:36:19;10.20;99.90
9987;DHT22;5033;46.310;11.214;2023-11-19T10:38:52;10.30;99.90
9987;DHT22;5033;46.310;11.214;2023-11-19T10:41:29;10.30;99.90
9987;DHT22;5033;46.310;11.214;2023-11-19T10:43:57;10.30;99.90
9987;DHT22;5033;46.310;11.214;2023-11-19T10:46:36;10.50;99.90
9987;DHT22;5033;46.310;11.214;2023-11-19T10:49:04;10.90;99.90
9987;DHT22;5033;46.310;11.214;2023-11-19T10:51:32;11.20;99.90
9987;DHT22;5033;46.310;11.214;2023-11-19T10:54:02;11.20;99.90
9987;DHT22;5033;46.310;11.214;2023-11-19T10:56:32;11.30;99.90
9987;DHT22;5033;46.310;11.214;2023-11-19T10:58:59;11.10;99.90
9987;DHT22;5033;46.310;11.214;2023-11-19T11:01:34;11.30;99.90
9987;DHT22;5033;46.310;11.214;2023-11-19T11:04:04;11.30;99.90
9987;DHT22;5033;46.310;11.214;2023-11-19T11:06:34;11.60;99.90
9987;DHT22;5033;46.310;11.214;2023-11-19T11:09:01;11.80;99.90
9987;DHT22;5033;46.310;11.214;2023-11-19T11:11:30;11.80;99.90
9987;DHT22;5033;46.310;11.214;2023-11-19T11:13:58;11.90;99.90
9987;DHT22;5033;46.310;11.214;2023-11-19T11:16:27;12.40;99.90
9987;DHT22;5033;46.310;11.214;2023-11-19T11:18:56;12.80;99.90
9987;DHT22;5033;46.310;11.214;2023-11-19T11:21:26;13.30;99.90
9987;DHT22;5033;46.310;11.214;2023-11-19T11:24:09;13.60;99.90
9987;DHT22;5033;46.310;11.214;2023-11-19T11:26:57;14.00;99.90
9987;DHT22;5033;46.310;11.214;2023-11-19T11:29:33;14.10;99.90
9987;DHT22;5033;46.310;11.214;2023-11-19T11:32:08;14.00;99.90
9987;DHT22;5033;46.310;11.214;2023-11-19T11:34:56;13.60;99.90
9987;DHT22;5033;46.310;11.214;2023-11-19T11:37:32;13.40;99.90
9987;DHT22;5033;46.310;11.214;2023-11-19T11:40:00;13.30;99.90
9987;DHT22;5033;46.310;11.214;2023-11-19T11:42:34;13.50;99.90
9987;DHT22;5033;46.310;11.214;2023-11-19T11:45:03;14.00;99.90
9987;DHT22;5033;46.310;11.214;2023-11-19T11:50:50;14.60;99.90
9987;DHT22;5033;46.310;11.214;2023-11-19T11:53:18;14.70;99.90
9987;DHT22;5033;46.310;11.214;2023-11-19T11:55:55;14.80;99.90
9987;DHT22;5033;46.310;11.214;2023-11-19T11:58:42;15.00;99.90
9987;DHT22;5033;46.310;11.214;2023-11-19T12:01:15;14.90;99.90
9987;DHT22;5033;46.310;11.214;2023-11-19T12:03:46;14.80;99.90
9987;DHT22;5033;46.310;11.214;2023-11-19T12:06:14;14.70;99.90
9987;DHT22;5033;46.310;11.214;2023-11-19T12:08:41;14.60;99.90
9987;DHT22;5033;46.310;11.214;2023-11-19T12:11:08;14.60;99.90
9987;DHT22;5033;46.310;11.214;2023-11-19T12:13:53;14.80;99.90
9987;DHT22;5033;46.310;11.214;2023-11-19T12:16:22;14.80;99.90
9987;DHT22;5033;46.310;11.214;2023-11-19T12:18:49;14.80;99.90
9987;DHT22;5033;46.310;11.214;2023-11-19T12:21:38;14.90;99.90
9987;DHT22;5033;46.310;11.214;2023-11-19T12:24:06;15.00;99.90
9987;DHT22;5033;46.310;11.214;2023-11-19T12:26:35;14.70;99.90
9987;DHT22;5033;46.310;11.214;2023-11-19T12:29:02;14.60;99.90
9987;DHT22;5033;46.310;11.214;2023-11-19T12:31:33;14.50;99.90
9987;DHT22;5033;46.310;11.214;2023-11-19T12:34:09;14.50;99.90
9987;DHT22;5033;46.310;11.214;2023-11-19T12:36:39;14.50;99.90
9987;DHT22;5033;46.310;11.214;2023-11-19T12:39:08;14.40;99.90
9987;DHT22;5033;46.310;11.214;2023-11-19T12:41:53;14.30;99.90
9987;DHT22;5033;46.310;11.214;2023-11-19T12:44:21;14.40;99.90
9987;DHT22;5033;46.310;11.214;2023-11-19T12:46:59;14.50;99.90
9987;DHT22;5033;46.310;11.214;2023-11-19T12:49:26;14.60;99.90
9987;DHT22;5033;46.310;11.214;2023-11-19T12:51:55;14.70;99.90
9987;DHT22;5033;46.310;11.214;2023-11-19T12:54:32;14.40;99.90
9987;DHT22;5033;46.310;11.214;2023-11-19T12:56:59;14.10;99.90
9987;DHT22;5033;46.310;11.214;2023-11-19T12:59:26;13.80;99.90
9987;DHT22;5033;46.310;11.214;2023-11-19T13:01:54;13.50;99.90
9987;DHT22;5033;46.310;11.214;2023-11-19T13:04:21;13.50;99.90
9987;DHT22;5033;46.310;11.214;2023-11-19T13:06:50;13.30;99.90
9987;DHT22;5033;46.310;11.214;2023-11-19T13:09:25;13.10;99.90
9987;DHT22;5033;46.310;11.214;2023-11-19T13:11:53;13.50;99.90
9987;DHT22;5033;46.310;11.214;2023-11-19T13:14:20;13.50;99.90
9987;DHT22;5033;46.310;11.214;2023-11-19T13:16:47;13.80;99.90
9987;DHT22;5033;46.310;11.214;2023-11-19T13:19:15;14.20;99.90
9987;DHT22;5033;46.310;11.214;2023-11-19T13:21:44;14.40;99.90
9987;DHT22;5033;46.310;11.214;2023-11-19T13:24:13;14.60;99.90
9987;DHT22;5033;46.310;11.214;2023-11-19T13:26:41;14.60;99.90
9987;DHT22;5033;46.310;11.214;2023-11-19T13:29:08;14.60;99.90
9987;DHT22;5033;46.310;11.214;2023-11-19T13:31:36;14.50;99.90
9987;DHT22;5033;46.310;11.214;2023-11-19T13:34:03;14.50;99.90
9987;DHT22;5033;46.310;11.214;2023-11-19T13:36:32;14.50;99.90
9987;DHT22;5033;46.310;11.214;2023-11-19T13:38:59;14.30;99.90
9987;DHT22;5033;46.310;11.214;2023-11-19T13:41:26;14.40;99.90
9987;DHT22;5033;46.310;11.214;2023-11-19T13:43:55;14.60;99.90
9987;DHT22;5033;46.310;11.214;2023-11-19T13:46:22;14.70;99.90
9987;DHT22;5033;46.310;11.214;2023-11-19T13:48:49;14.60;99.90
9987;DHT22;5033;46.310;11.214;2023-11-19T13:51:16;14.50;99.90
9987;DHT22;5033;46.310;11.214;2023-11-19T13:53:43;14.00;99.90
9987;DHT22;5033;46.310;11.214;2023-11-19T13:56:09;13.60;99.90
9987;DHT22;5033;46.310;11.214;2023-11-19T13:58:36;13.30;99.90
9987;DHT22;5033;46.310;11.214;2023-11-19T14:01:05;13.00;99.90
9987;DHT22;5033;46.310;11.214;2023-11-19T14:03:32;12.80;99.90
9987;DHT22;5033;46.310;11.214;2023-11-19T14:05:59;12.60;99.90
9987;DHT22;5033;46.310;11.214;2023-11-19T14:08:26;12.60;99.90
9987;DHT22;5033;46.310;11.214;2023-11-19T14:10:53;12.50;99.90
9987;DHT22;5033;46.310;11.214;2023-11-19T14:13:22;12.30;99.90
9987;DHT22;5033;46.310;11.214;2023-11-19T14:15:49;12.10;99.90
9987;DHT22;5033;46.310;11.214;2023-11-19T14:18:17;12.00;99.90
9987;DHT22;5033;46.310;11.214;2023-11-19T14:20:45;11.90;99.90
9987;DHT22;5033;46.310;11.214;2023-11-19T14:23:12;11.70;99.90
9987;DHT22;5033;46.310;11.214;2023-11-19T14:25:39;11.70;99.90
9987;DHT22;5033;46.310;11.214;2023-11-19T14:28:06;11.60;99.90
9987;DHT22;5033;46.310;11.214;2023-11-19T14:30:33;11.50;99.90
9987;DHT22;5033;46.310;11.214;2023-11-19T14:33:00;11.40;99.90
9987;DHT22;5033;46.310;11.214;2023-11-19T14:35:29;11.30;99.90
9987;DHT22;5033;46.310;11.214;2023-11-19T14:37:58;11.20;99.90
9987;DHT22;5033;46.310;11.214;2023-11-19T14:40:25;11.20;99.90
9987;DHT22;5033;46.310;11.214;2023-11-19T14:42:52;11.10;99.90
9987;DHT22;5033;46.310;11.214;2023-11-19T14:45:19;11.10;99.90
9987;DHT22;5033;46.310;11.214;2023-11-19T14:47:46;11.00;99.90
9987;DHT22;5033;46.310;11.214;2023-11-19T14:50:13;10.90;99.90
9987;DHT22;5033;46.310;11.214;2023-11-19T14:52:41;10.90;99.90
9987;DHT22;5033;46.310;11.214;2023-11-19T14:55:09;10.80;99.90
9987;DHT22;5033;46.310;11.214;2023-11-19T14:57:37;10.80;99.90
9987;DHT22;5033;46.310;11.214;2023-11-19T15:00:08;10.70;99.90
9987;DHT22;5033;46.310;11.214;2023-11-19T15:02:39;10.60;99.90
9987;DHT22;5033;46.310;11.214;2023-11-19T15:05:07;10.50;99.90
9987;DHT22;5033;46.310;11.214;2023-11-19T15:07:36;10.40;99.90
9987;DHT22;5033;46.310;11.214;2023-11-19T15:10:05;10.30;99.90
9987;DHT22;5033;46.310;11.214;2023-11-19T15:12:36;10.30;99.90
9987;DHT22;5033;46.310;11.214;2023-11-19T15:15:06;10.20;99.90
9987;DHT22;5033;46.310;11.214;2023-11-19T15:17:34;10.20;99.90
9987;DHT22;5033;46.310;11.214;2023-11-19T15:20:02;10.10;99.90
9987;DHT22;5033;46.310;11.214;2023-11-19T15:22:29;10.10;99.90
9987;DHT22;5033;46.310;11.214;2023-11-19T15:24:56;10.00;99.90
9987;DHT22;5033;46.310;11.214;2023-11-19T15:27:25;9.90;99.90
9987;DHT22;5033;46.310;11.214;2023-11-19T15:29:52;9.90;99.90
9987;DHT22;5033;46.310;11.214;2023-11-19T15:32:19;9.80;99.90
9987;DHT22;5033;46.310;11.214;2023-11-19T15:34:46;9.70;99.90
9987;DHT22;5033;46.310;11.214;2023-11-19T15:37:14;9.70;99.90
9987;DHT22;5033;46.310;11.214;2023-11-19T15:39:41;9.60;99.90
9987;DHT22;5033;46.310;11.214;2023-11-19T15:42:08;9.60;99.90
9987;DHT22;5033;46.310;11.214;2023-11-19T15:44:38;9.50;99.90
9987;DHT22;5033;46.310;11.214;2023-11-19T15:47:06;9.50;99.90
9987;DHT22;5033;46.310;11.214;2023-11-19T15:49:33;9.50;99.90
9987;DHT22;5033;46.310;11.214;2023-11-19T15:52:00;9.40;99.90
9987;DHT22;5033;46.310;11.214;2023-11-19T15:54:26;9.30;99.90
9987;DHT22;5033;46.310;11.214;2023-11-19T15:56:53;9.30;99.90
9987;DHT22;5033;46.310;11.214;2023-11-19T15:59:20;9.20;99.90
9987;DHT22;5033;46.310;11.214;2023-11-19T16:01:49;9.20;99.90
9987;DHT22;5033;46.310;11.214;2023-11-19T16:04:16;9.10;99.90
9987;DHT22;5033;46.310;11.214;2023-11-19T16:06:42;9.10;99.90